Time,TemperatureF,DewpointF,PressureIn,WindDirection,WindDirectionDegrees,WindSpeedMPH,WindSpeedGustMPH,Humidity,HourlyPrecipIn,Conditions,Clouds,dailyrainin,SoftwareType,DateUTC
2013-10-16 04:22:00,56.0,-99.9,-100.00,SE,141,6.0,9.0,-999,-99.99,,,-99.99,,2013-10-16 12:22:00,
2013-10-16 04:33:00,56.0,-99.9,-100.00,SE,141,6.0,9.0,-999,-99.99,,,-99.99,,2013-10-16 12:33:00,
2013-10-16 04:43:00,56.0,-99.9,-100.00,SE,141,6.0,9.0,-999,-99.99,,,-99.99,,2013-10-16 12:43:00,
2013-10-16 04:52:00,56.0,-99.9,-100.00,SE,141,6.0,9.0,-999,-99.99,,,-99.99,,2013-10-16 12:52:00,
2013-10-16 07:22:00,56.0,-99.9,-100.00,SE,135,9.0,9.0,-999,-99.99,,,-99.99,,2013-10-16 15:22:00,
2013-10-16 07:33:00,56.0,-99.9,-100.00,SE,135,9.0,9.0,-999,-99.99,,,-99.99,,2013-10-16 15:33:00,
2013-10-16 07:44:00,56.0,-99.9,-100.00,SE,135,9.0,9.0,-999,-99.99,,,-99.99,,2013-10-16 15:44:00,
2013-10-16 07:53:00,56.0,-99.9,-100.00,SE,135,9.0,9.0,-999,-99.99,,,-99.99,,2013-10-16 15:53:00,
2013-10-16 08:23:00,56.0,-99.9,-100.00,SSE,148,18.0,18.0,-999,-99.99,,,-99.99,,2013-10-16 16:23:00,
2013-10-16 08:33:00,56.0,-99.9,-100.00,SSE,148,18.0,18.0,-999,-99.99,,,-99.99,,2013-10-16 16:33:00,
2013-10-16 08:42:00,56.0,-99.9,-100.00,SSE,148,18.0,18.0,-999,-99.99,,,-99.99,,2013-10-16 16:42:00,
2013-10-16 08:53:00,56.0,-99.9,-100.00,SSE,148,18.0,18.0,-999,-99.99,,,-99.99,,2013-10-16 16:53:00,
2013-10-16 09:22:00,56.0,-99.9,-100.00,ESE,112,14.0,0.0,-999,-99.99,,,-99.99,,2013-10-16 17:22:00,
2013-10-16 09:33:00,56.0,-99.9,-100.00,ESE,112,14.0,0.0,-999,-99.99,,,-99.99,,2013-10-16 17:33:00,
2013-10-16 09:43:00,56.0,-99.9,-100.00,ESE,112,14.0,0.0,-999,-99.99,,,-99.99,,2013-10-16 17:43:00,
2013-10-16 09:52:00,56.0,-99.9,-100.00,ESE,112,14.0,0.0,-999,-99.99,,,-99.99,,2013-10-16 17:52:00,
2013-10-16 10:22:00,56.0,-99.9,-100.00,SSW,204,3.0,0.0,-999,-99.99,,,-99.99,,2013-10-16 18:22:00,
2013-10-16 10:32:00,56.0,-99.9,-100.00,SSW,204,3.0,0.0,-999,-99.99,,,-99.99,,2013-10-16 18:32:00,
2013-10-16 10:42:00,56.0,-99.9,-100.00,SSW,204,3.0,0.0,-999,-99.99,,,-99.99,,2013-10-16 18:42:00,
2013-10-16 10:52:00,56.0,-99.9,-100.00,SSW,204,3.0,0.0,-999,-99.99,,,-99.99,,2013-10-16 18:52:00,
2013-10-16 12:22:00,56.0,-99.9,-100.00,ESE,108,14.0,18.0,-999,-99.99,,,-99.99,,2013-10-16 20:22:00,
2013-10-16 12:32:00,56.0,-99.9,-100.00,ESE,108,14.0,18.0,-999,-99.99,,,-99.99,,2013-10-16 20:32:00,
2013-10-16 12:43:00,56.0,-99.9,-100.00,ESE,108,14.0,18.0,-999,-99.99,,,-99.99,,2013-10-16 20:43:00,
2013-10-16 12:52:00,56.0,-99.9,-100.00,ESE,108,14.0,18.0,-999,-99.99,,,-99.99,,2013-10-16 20:52:00,
2013-10-16 13:23:00,56.0,-99.9,-100.00,ESE,115,8.0,25.0,-999,-99.99,,,-99.99,,2013-10-16 21:23:00,
2013-10-16 13:34:00,56.0,-99.9,-100.00,ESE,115,8.0,25.0,-999,-99.99,,,-99.99,,2013-10-16 21:34:00,
2013-10-16 13:44:00,56.0,-99.9,-100.00,ESE,115,8.0,25.0,-999,-99.99,,,-99.99,,2013-10-16 21:44:00,
2013-10-16 13:54:00,56.0,-99.9,-100.00,ESE,115,8.0,25.0,-999,-99.99,,,-99.99,,2013-10-16 21:54:00,
2013-10-16 14:24:00,56.0,-99.9,-100.00,SW,234,5.0,6.0,-999,-99.99,,,-99.99,,2013-10-16 22:24:00,
2013-10-16 14:33:00,56.0,-99.9,-100.00,SW,234,5.0,6.0,-999,-99.99,,,-99.99,,2013-10-16 22:33:00,
2013-10-16 14:42:00,56.0,-99.9,-100.00,SW,234,5.0,6.0,-999,-99.99,,,-99.99,,2013-10-16 22:42:00,
2013-10-16 15:22:00,56.0,-99.9,-100.00,SE,132,0.0,5.0,-999,-99.99,,,-99.99,,2013-10-16 23:22:00,
2013-10-16 15:34:00,56.0,-99.9,-100.00,SE,132,0.0,5.0,-999,-99.99,,,-99.99,,2013-10-16 23:34:00,
2013-10-16 15:42:00,56.0,-99.9,-100.00,SE,132,0.0,5.0,-999,-99.99,,,-99.99,,2013-10-16 23:42:00,
2013-10-16 15:53:00,56.0,-99.9,-100.00,SE,132,0.0,5.0,-999,-99.99,,,-99.99,,2013-10-16 23:53:00,
2013-10-16 16:22:00,54.0,-99.9,-100.00,West,276,4.0,5.0,-999,-99.99,,,-99.99,,2013-10-17 00:22:00,
2013-10-16 16:32:00,54.0,-99.9,-100.00,West,276,4.0,5.0,-999,-99.99,,,-99.99,,2013-10-17 00:32:00,
2013-10-16 16:42:00,54.0,-99.9,-100.00,West,276,4.0,5.0,-999,-99.99,,,-99.99,,2013-10-17 00:42:00,
2013-10-16 16:52:00,54.0,-99.9,-100.00,West,276,4.0,5.0,-999,-99.99,,,-99.99,,2013-10-17 00:52:00,
2013-10-16 18:22:00,50.0,-99.9,-100.00,NNE,33,0.0,0.0,-999,-99.99,,,-99.99,,2013-10-17 02:22:00,
2013-10-16 18:32:00,50.0,-99.9,-100.00,NNE,33,0.0,0.0,-999,-99.99,,,-99.99,,2013-10-17 02:32:00,
2013-10-16 18:42:00,50.0,-99.9,-100.00,NNE,33,0.0,0.0,-999,-99.99,,,-99.99,,2013-10-17 02:42:00,
2013-10-16 18:53:00,50.0,-99.9,-100.00,NNE,33,0.0,0.0,-999,-99.99,,,-99.99,,2013-10-17 02:53:00,
2013-10-16 19:22:00,49.0,-99.9,-100.00,WSW,255,0.0,0.0,-999,-99.99,,,-99.99,,2013-10-17 03:22:00,
2013-10-16 19:34:00,49.0,-99.9,-100.00,WSW,255,0.0,0.0,-999,-99.99,,,-99.99,,2013-10-17 03:34:00,
2013-10-16 19:45:00,49.0,-99.9,-100.00,WSW,255,0.0,0.0,-999,-99.99,,,-99.99,,2013-10-17 03:45:00,
2013-10-16 19:54:00,49.0,-99.9,-100.00,WSW,255,0.0,0.0,-999,-99.99,,,-99.99,,2013-10-17 03:54:00,
2013-10-16 20:24:00,47.0,-99.9,-100.00,WSW,251,0.0,2.0,-999,-99.99,,,-99.99,,2013-10-17 04:24:00,
2013-10-16 20:34:00,47.0,-99.9,-100.00,WSW,251,0.0,2.0,-999,-99.99,,,-99.99,,2013-10-17 04:34:00,
2013-10-16 20:43:00,47.0,-99.9,-100.00,WSW,251,0.0,2.0,-999,-99.99,,,-99.99,,2013-10-17 04:43:00,
2013-10-16 20:54:00,47.0,-99.9,-100.00,WSW,251,0.0,2.0,-999,-99.99,,,-99.99,,2013-10-17 04:54:00,
2013-10-16 21:23:00,46.0,-99.9,-100.00,North,352,10.0,10.0,-999,-99.99,,,-99.99,,2013-10-17 05:23:00,
2013-10-16 21:34:00,46.0,-99.9,-100.00,North,352,10.0,10.0,-999,-99.99,,,-99.99,,2013-10-17 05:34:00,
2013-10-16 21:42:00,46.0,-99.9,-100.00,North,352,10.0,10.0,-999,-99.99,,,-99.99,,2013-10-17 05:42:00,
2013-10-16 21:52:00,46.0,-99.9,-100.00,North,352,10.0,10.0,-999,-99.99,,,-99.99,,2013-10-17 05:52:00,
2013-10-16 22:22:00,45.0,-99.9,-100.00,ESE,104,0.0,5.0,-999,-99.99,,,-99.99,,2013-10-17 06:22:00,
2013-10-16 22:33:00,45.0,-99.9,-100.00,ESE,104,0.0,5.0,-999,-99.99,,,-99.99,,2013-10-17 06:33:00,
2013-10-16 22:42:00,45.0,-99.9,-100.00,ESE,104,0.0,5.0,-999,-99.99,,,-99.99,,2013-10-17 06:42:00,
2013-10-16 22:52:00,45.0,-99.9,-100.00,ESE,104,0.0,5.0,-999,-99.99,,,-99.99,,2013-10-17 06:52:00,
2013-10-16 23:22:00,45.0,-99.9,-100.00,WNW,285,0.0,5.0,-999,-99.99,,,-99.99,,2013-10-17 07:22:00,
2013-10-16 23:32:00,45.0,-99.9,-100.00,WNW,285,0.0,5.0,-999,-99.99,,,-99.99,,2013-10-17 07:32:00,
2013-10-16 23:43:00,45.0,-99.9,-100.00,WNW,285,0.0,5.0,-999,-99.99,,,-99.99,,2013-10-17 07:43:00,
2013-10-16 23:52:00,45.0,-99.9,-100.00,WNW,285,0.0,5.0,-999,-99.99,,,-99.99,,2013-10-17 07:52:00,